Time;durP1;ratioP1;P1;durP2;ratioP2;P2;SDS_P1;SDS_P2;PMS_P1;PMS_P2;Temp;Humidity;BMP_temperature;BMP_pressure;BME280_temperature;BME280_humidity;BME280_pressure;Samples;Min_cycle;Max_cycle;Signal;HPM_P1;HPM_P2
2021/10/08 00:02:16;;;;;;;5.47;3.97;;;10.60;82.80;;;;;;5042629;28;20633;-45
2021/10/08 00:04:43;;;;;;;3.57;3.27;;;10.60;82.80;;;;;;5043602;28;20516;-45
2021/10/08 00:07:10;;;;;;;3.90;3.50;;;10.60;82.90;;;;;;5043298;28;20459;-45
2021/10/08 00:09:38;;;;;;;4.33;3.60;;;10.60;82.90;;;;;;5040780;28;20822;-45
2021/10/08 00:12:06;;;;;;;4.63;3.37;;;10.50;82.90;;;;;;5012358;28;20454;-45
2021/10/08 00:14:33;;;;;;;6.43;3.93;;;10.60;83.00;;;;;;5028419;28;21009;-45
2021/10/08 00:16:59;;;;;;;6.10;4.63;;;10.50;83.00;;;;;;5041182;28;20491;-45
2021/10/08 00:19:26;;;;;;;23.30;13.37;;;10.50;83.00;;;;;;5044007;28;20455;-45
2021/10/08 00:21:53;;;;;;;25.60;14.93;;;10.60;83.00;;;;;;5028138;28;20979;-45
2021/10/08 00:24:20;;;;;;;16.97;10.90;;;10.50;82.90;;;;;;5042588;28;20462;-45
2021/10/08 00:26:46;;;;;;;9.63;6.67;;;10.50;82.90;;;;;;5043499;28;20477;-45
2021/10/08 00:29:13;;;;;;;8.40;5.57;;;10.50;83.00;;;;;;5029392;28;20455;-45
2021/10/08 00:31:40;;;;;;;7.43;5.67;;;10.40;82.80;;;;;;5044579;28;20462;-45
2021/10/08 00:34:07;;;;;;;4.80;4.33;;;10.40;83.10;;;;;;5042495;28;20479;-45
2021/10/08 00:36:34;;;;;;;6.97;4.60;;;10.40;83.20;;;;;;5038681;28;21027;-45
2021/10/08 00:39:01;;;;;;;5.97;4.60;;;10.40;83.20;;;;;;5027277;28;20465;-45
2021/10/08 00:41:27;;;;;;;4.63;4.00;;;10.40;83.30;;;;;;5043691;28;20830;-45
2021/10/08 00:43:54;;;;;;;3.90;3.50;;;10.40;83.40;;;;;;5028105;28;21096;-45
2021/10/08 00:46:22;;;;;;;5.87;4.10;;;10.40;83.20;;;;;;5027394;28;20465;-45
2021/10/08 00:48:58;;;;;;;5.20;4.70;;;10.40;83.20;;;;;;5040879;28;20541;-45
2021/10/08 00:51:25;;;;;;;6.27;5.10;;;10.30;83.10;;;;;;5042553;28;20450;-45
2021/10/08 00:53:52;;;;;;;5.90;5.40;;;10.30;83.10;;;;;;5039119;28;20463;-45
2021/10/08 00:56:22;;;;;;;4.70;4.40;;;10.30;83.30;;;;;;5041866;28;20490;-45
2021/10/08 00:58:50;;;;;;;5.33;4.17;;;10.30;83.30;;;;;;5042116;28;20477;-45
2021/10/08 01:01:17;;;;;;;5.70;4.50;;;10.30;83.20;;;;;;5042879;28;20447;-45
2021/10/08 01:03:44;;;;;;;4.47;4.03;;;10.30;83.30;;;;;;5025528;28;20568;-45
2021/10/08 01:06:12;;;;;;;5.07;4.60;;;10.30;83.10;;;;;;5040894;28;20482;-45
2021/10/08 01:08:39;;;;;;;5.40;3.50;;;10.20;83.30;;;;;;5042198;28;20463;-45
2021/10/08 01:11:06;;;;;;;3.53;3.23;;;10.20;83.30;;;;;;5042566;28;20461;-45
2021/10/08 01:13:33;;;;;;;5.57;2.97;;;10.20;83.20;;;;;;5040176;28;20478;-45
2021/10/08 01:15:59;;;;;;;5.40;4.03;;;10.20;83.30;;;;;;5039683;28;20486;-45
2021/10/08 01:18:27;;;;;;;5.07;3.40;;;10.20;83.40;;;;;;5032550;28;20464;-45
2021/10/08 01:20:54;;;;;;;4.03;3.60;;;10.20;83.50;;;;;;5032172;28;20474;-45
2021/10/08 01:23:21;;;;;;;5.10;3.20;;;10.20;83.30;;;;;;5040852;28;20463;-45
2021/10/08 01:25:50;;;;;;;4.50;3.80;;;10.20;83.30;;;;;;5041874;28;20832;-45
2021/10/08 01:28:19;;;;;;;4.00;3.47;;;10.20;83.30;;;;;;5039845;28;20455;-45
2021/10/08 01:30:47;;;;;;;3.70;3.13;;;10.20;83.30;;;;;;5040735;28;20469;-45
2021/10/08 01:33:14;;;;;;;6.27;4.60;;;10.20;83.40;;;;;;5025190;28;20481;-45
2021/10/08 01:35:41;;;;;;;5.20;4.67;;;10.20;83.40;;;;;;5012768;28;20465;-45
2021/10/08 01:38:08;;;;;;;3.80;3.40;;;10.20;83.50;;;;;;5044042;28;20619;-45
2021/10/08 01:40:35;;;;;;;5.03;3.93;;;10.10;83.40;;;;;;5040668;28;20488;-45
2021/10/08 01:43:01;;;;;;;4.17;3.77;;;10.10;83.50;;;;;;5042095;28;20473;-45
2021/10/08 01:45:28;;;;;;;3.30;3.00;;;10.10;83.60;;;;;;5039623;28;20458;-46
2021/10/08 01:47:55;;;;;;;3.70;3.33;;;10.10;83.50;;;;;;5026028;28;21009;-45
2021/10/08 01:50:22;;;;;;;5.27;4.20;;;10.10;83.60;;;;;;5025905;28;20969;-45
2021/10/08 01:52:48;;;;;;;5.63;4.10;;;10.10;83.60;;;;;;5012543;28;20465;-45
2021/10/08 01:55:15;;;;;;;4.87;3.60;;;10.00;83.50;;;;;;5039654;28;20467;-46
2021/10/08 01:57:43;;;;;;;6.33;3.60;;;10.00;83.60;;;;;;5026609;28;20574;-46
2021/10/08 02:00:11;;;;;;;4.40;3.87;;;10.00;83.60;;;;;;5040090;28;20745;-45
2021/10/08 02:02:37;;;;;;;4.20;3.40;;;10.00;83.60;;;;;;5042446;28;20458;-45
2021/10/08 02:05:04;;;;;;;3.67;3.37;;;10.00;83.60;;;;;;5025550;28;20467;-45
2021/10/08 02:07:31;;;;;;;8.03;3.63;;;10.00;83.60;;;;;;5040917;28;20966;-45
2021/10/08 02:09:58;;;;;;;5.10;3.87;;;10.00;83.70;;;;;;5042360;28;20450;-46
2021/10/08 02:12:24;;;;;;;7.83;4.70;;;9.90;83.60;;;;;;5027285;28;20842;-45
2021/10/08 02:14:51;;;;;;;4.93;3.70;;;9.90;83.60;;;;;;5029979;28;20494;-45
2021/10/08 02:17:18;;;;;;;4.60;3.80;;;9.90;83.70;;;;;;5046698;28;20489;-45
2021/10/08 02:19:45;;;;;;;5.40;3.83;;;9.90;83.70;;;;;;5043560;28;21143;-46
2021/10/08 02:22:11;;;;;;;4.00;3.70;;;9.90;83.70;;;;;;5044492;28;20467;-45
2021/10/08 02:24:38;;;;;;;4.93;4.47;;;9.90;83.70;;;;;;5045892;28;20457;-46
2021/10/08 02:27:05;;;;;;;5.73;4.50;;;9.80;83.80;;;;;;5044085;28;20495;-44
2021/10/08 02:29:32;;;;;;;7.97;3.83;;;9.80;83.70;;;;;;5042214;28;20456;-44
2021/10/08 02:31:59;;;;;;;5.30;4.00;;;9.80;83.70;;;;;;5045196;28;20458;-44
2021/10/08 02:34:26;;;;;;;4.97;3.63;;;9.80;83.80;;;;;;5045443;28;20465;-44
2021/10/08 02:36:52;;;;;;;4.30;3.90;;;9.80;83.90;;;;;;5044235;28;20486;-45
2021/10/08 02:39:19;;;;;;;4.20;3.70;;;9.70;83.90;;;;;;5035503;28;20455;-46
2021/10/08 02:41:46;;;;;;;4.60;3.90;;;9.80;83.90;;;;;;5038685;28;20510;-46
2021/10/08 02:44:12;;;;;;;6.70;4.30;;;9.80;83.80;;;;;;5035199;28;20830;-46
2021/10/08 02:46:39;;;;;;;7.23;4.17;;;9.80;83.70;;;;;;5045831;28;20452;-46
2021/10/08 02:49:06;;;;;;;5.77;3.20;;;9.70;83.90;;;;;;5053667;28;20518;-46
2021/10/08 02:51:33;;;;;;;6.20;4.50;;;9.80;83.80;;;;;;5051510;28;20963;-46
2021/10/08 02:54:01;;;;;;;8.80;4.70;;;9.70;83.80;;;;;;5050261;28;20498;-46
2021/10/08 02:56:29;;;;;;;7.53;4.20;;;9.80;83.80;;;;;;5035851;28;20500;-46
2021/10/08 02:58:56;;;;;;;10.53;4.50;;;9.70;83.80;;;;;;5052814;28;20446;-46
2021/10/08 03:01:22;;;;;;;9.57;4.23;;;9.70;83.90;;;;;;5051499;28;20778;-46
2021/10/08 03:03:49;;;;;;;7.27;4.63;;;9.70;83.90;;;;;;5053409;28;20836;-46
2021/10/08 03:06:16;;;;;;;5.70;3.50;;;9.70;84.00;;;;;;5052515;28;20446;-46
2021/10/08 03:08:45;;;;;;;6.87;5.00;;;9.70;84.10;;;;;;5051047;28;20458;-46
2021/10/08 03:11:12;;;;;;;7.03;4.87;;;9.70;84.10;;;;;;5050484;28;20457;-46
2021/10/08 03:13:39;;;;;;;9.00;4.87;;;9.70;84.30;;;;;;5038038;28;20588;-45
2021/10/08 03:16:06;;;;;;;8.77;5.10;;;9.70;84.20;;;;;;5050672;28;21000;-45
2021/10/08 03:18:33;;;;;;;10.23;5.70;;;9.70;84.30;;;;;;5051368;28;20925;-46
2021/10/08 03:21:00;;;;;;;8.37;5.30;;;9.70;84.10;;;;;;5051089;28;20473;-46
2021/10/08 03:23:27;;;;;;;5.80;4.63;;;9.70;84.10;;;;;;5052325;28;20451;-46
2021/10/08 03:25:53;;;;;;;8.30;5.40;;;9.70;84.10;;;;;;5049404;28;20465;-46
2021/10/08 03:28:20;;;;;;;5.33;4.60;;;9.70;84.10;;;;;;5053834;28;20465;-46
2021/10/08 03:30:47;;;;;;;5.80;5.10;;;9.70;84.20;;;;;;5050432;28;20447;-46
2021/10/08 03:33:14;;;;;;;6.57;4.50;;;9.70;84.20;;;;;;5051299;28;20465;-46
2021/10/08 03:35:42;;;;;;;5.80;4.00;;;9.70;84.10;;;;;;5050784;28;20451;-46
2021/10/08 03:38:14;;;;;;;7.50;4.37;;;9.70;84.20;;;;;;5049831;28;20475;-46
2021/10/08 03:40:42;;;;;;;6.73;4.13;;;9.70;84.30;;;;;;5052850;28;20797;-46
2021/10/08 03:43:12;;;;;;;7.67;4.70;;;9.70;84.20;;;;;;5035713;28;20617;-46
2021/10/08 03:45:46;;;;;;;6.10;4.73;;;9.60;84.10;;;;;;5054366;28;20447;-46
2021/10/08 03:51:00;;;;;;;7.33;4.77;;;9.60;84.20;;;;;;5050661;28;20454;-46
2021/10/08 03:53:27;;;;;;;4.80;4.30;;;9.60;84.30;;;;;;5048122;28;20954;-46
2021/10/08 03:55:54;;;;;;;6.17;4.73;;;9.50;84.40;;;;;;5037750;28;20458;-46
2021/10/08 03:58:21;;;;;;;4.80;4.30;;;9.60;84.30;;;;;;5054140;28;20581;-46
2021/10/08 04:00:48;;;;;;;5.50;4.33;;;9.50;84.30;;;;;;5053684;28;20571;-46
2021/10/08 04:03:15;;;;;;;6.27;4.70;;;9.50;84.40;;;;;;5049118;28;20996;-46
2021/10/08 04:05:43;;;;;;;5.77;4.53;;;9.50;84.40;;;;;;5050250;28;20539;-46
2021/10/08 04:08:10;;;;;;;9.00;5.03;;;9.50;84.50;;;;;;5052697;28;20757;-46
2021/10/08 04:10:36;;;;;;;5.93;4.97;;;9.50;84.30;;;;;;5051171;28;20459;-46
2021/10/08 04:13:03;;;;;;;7.93;4.80;;;9.50;84.30;;;;;;5051121;28;20475;-45
2021/10/08 04:15:30;;;;;;;6.80;5.93;;;9.50;84.30;;;;;;5032128;28;20495;-46
2021/10/08 04:17:57;;;;;;;7.80;6.03;;;9.50;84.10;;;;;;5051893;28;20566;-46
2021/10/08 04:20:24;;;;;;;5.83;5.20;;;9.50;84.10;;;;;;5047504;28;20455;-46
2021/10/08 04:22:51;;;;;;;8.73;5.30;;;9.50;84.20;;;;;;5048216;28;20541;-46
2021/10/08 04:25:18;;;;;;;5.37;4.80;;;9.50;84.10;;;;;;5048589;28;20442;-46
2021/10/08 04:27:44;;;;;;;5.80;5.03;;;9.50;84.00;;;;;;5053801;28;20458;-46
2021/10/08 04:30:11;;;;;;;6.43;5.00;;;9.50;84.10;;;;;;5048880;28;20476;-46
2021/10/08 04:32:38;;;;;;;4.90;4.10;;;9.40;84.20;;;;;;5049964;28;20459;-46
2021/10/08 04:35:05;;;;;;;6.27;5.00;;;9.50;84.10;;;;;;5045320;28;20455;-46
2021/10/08 04:37:32;;;;;;;5.90;5.13;;;9.40;84.10;;;;;;5046165;28;20495;-46
2021/10/08 04:39:58;;;;;;;11.53;5.90;;;9.40;84.30;;;;;;5049175;28;20448;-45
2021/10/08 04:42:27;;;;;;;6.00;4.97;;;9.40;84.40;;;;;;5053315;28;20455;-45
2021/10/08 04:44:54;;;;;;;9.80;4.70;;;9.40;84.50;;;;;;5049619;28;20451;-45
2021/10/08 04:47:21;;;;;;;5.97;4.50;;;9.40;84.40;;;;;;5047814;28;20458;-45
2021/10/08 04:49:47;;;;;;;6.93;4.50;;;9.40;84.40;;;;;;5052728;28;20462;-45
2021/10/08 04:52:14;;;;;;;6.10;5.43;;;9.40;84.50;;;;;;5036139;28;20451;-45
2021/10/08 04:54:41;;;;;;;9.80;5.30;;;9.40;84.60;;;;;;5049556;28;20455;-45
2021/10/08 04:57:07;;;;;;;7.20;5.60;;;9.40;84.40;;;;;;5050413;28;20489;-45
2021/10/08 04:59:34;;;;;;;8.93;5.77;;;9.40;84.40;;;;;;5052476;28;20461;-46
2021/10/08 05:02:01;;;;;;;6.67;5.53;;;9.30;84.40;;;;;;5050805;28;20838;-46
2021/10/08 05:04:28;;;;;;;8.77;5.27;;;9.30;84.50;;;;;;5050959;28;20454;-46
2021/10/08 05:06:55;;;;;;;12.93;6.20;;;9.30;84.60;;;;;;5052180;28;20446;-46
2021/10/08 05:09:22;;;;;;;8.37;5.27;;;9.30;84.50;;;;;;5048978;28;20455;-46
2021/10/08 05:11:49;;;;;;;8.63;4.97;;;9.30;84.50;;;;;;5046693;28;20827;-45
2021/10/08 05:14:16;;;;;;;7.10;6.40;;;9.30;84.60;;;;;;5039294;28;20554;-45
2021/10/08 05:16:42;;;;;;;6.00;5.30;;;9.20;84.70;;;;;;5038680;28;20975;-45
2021/10/08 05:19:09;;;;;;;6.73;6.00;;;9.20;84.70;;;;;;5041084;28;20512;-45
2021/10/08 05:21:36;;;;;;;5.40;4.90;;;9.30;84.40;;;;;;5027717;28;20473;-45
2021/10/08 05:24:03;;;;;;;8.00;4.80;;;9.30;84.30;;;;;;5038687;28;20979;-45
2021/10/08 05:26:30;;;;;;;7.43;6.00;;;9.30;84.50;;;;;;5041963;28;20827;-45
2021/10/08 05:28:57;;;;;;;5.23;4.63;;;9.20;84.40;;;;;;5041398;28;20451;-45
2021/10/08 05:31:23;;;;;;;6.40;4.97;;;9.20;84.60;;;;;;5041502;28;20493;-45
2021/10/08 05:33:50;;;;;;;10.00;5.53;;;9.20;84.60;;;;;;5039304;28;20466;-45
2021/10/08 05:36:17;;;;;;;5.77;4.57;;;9.20;84.70;;;;;;5042907;28;20458;-45
2021/10/08 05:38:43;;;;;;;8.30;4.67;;;9.20;84.70;;;;;;5041458;28;20498;-45
2021/10/08 05:41:10;;;;;;;6.47;4.63;;;9.20;84.70;;;;;;5037967;28;20455;-45
2021/10/08 05:43:37;;;;;;;5.60;5.10;;;9.20;84.80;;;;;;5016033;28;20450;-45
2021/10/08 05:46:03;;;;;;;7.53;4.53;;;9.20;84.80;;;;;;5039691;28;20945;-45
2021/10/08 05:48:30;;;;;;;5.77;4.50;;;9.20;84.90;;;;;;5039390;28;20837;-46
2021/10/08 05:50:57;;;;;;;5.43;4.33;;;9.20;84.90;;;;;;5042343;28;20457;-46
2021/10/08 05:53:24;;;;;;;6.67;4.97;;;9.20;84.90;;;;;;5024927;28;20841;-46
2021/10/08 05:55:50;;;;;;;14.43;5.77;;;9.20;84.90;;;;;;5027639;28;20568;-46
2021/10/08 05:58:17;;;;;;;7.77;4.93;;;9.20;85.00;;;;;;5041962;28;20490;-45
2021/10/08 06:00:44;;;;;;;5.10;4.60;;;9.20;84.80;;;;;;5042356;28;20465;-45
2021/10/08 06:03:11;;;;;;;7.23;4.93;;;9.20;84.90;;;;;;5036614;28;20795;-45
2021/10/08 06:05:38;;;;;;;5.00;4.43;;;9.20;84.90;;;;;;5043020;28;20455;-45
2021/10/08 06:08:06;;;;;;;7.47;5.23;;;9.20;84.90;;;;;;5040648;28;20542;-45
2021/10/08 06:10:37;;;;;;;6.80;4.90;;;9.20;85.00;;;;;;5039088;28;20459;-45
2021/10/08 06:13:04;;;;;;;7.73;5.27;;;9.20;85.10;;;;;;5039650;28;21052;-45
2021/10/08 06:15:31;;;;;;;7.77;5.50;;;9.30;85.20;;;;;;5038424;28;20446;-45
2021/10/08 06:17:58;;;;;;;4.83;4.33;;;9.30;85.10;;;;;;5026236;28;20865;-45
2021/10/08 06:20:26;;;;;;;5.67;5.00;;;9.30;85.20;;;;;;5042051;28;20443;-45
2021/10/08 06:22:54;;;;;;;5.30;4.80;;;9.30;85.30;;;;;;5042129;28;20489;-45
2021/10/08 06:25:21;;;;;;;7.03;5.00;;;9.30;85.30;;;;;;5041978;28;20460;-45
2021/10/08 06:27:51;;;;;;;7.13;4.90;;;9.30;85.60;;;;;;5039108;28;21015;-45
2021/10/08 06:30:20;;;;;;;9.03;5.20;;;9.40;85.40;;;;;;5038507;28;20452;-45
2021/10/08 06:32:47;;;;;;;10.73;5.10;;;9.40;85.50;;;;;;5039402;28;20479;-45
2021/10/08 06:35:14;;;;;;;7.17;6.10;;;9.40;85.60;;;;;;5037260;28;20459;-45
2021/10/08 06:37:42;;;;;;;7.37;6.07;;;9.40;85.70;;;;;;5038362;28;20486;-45
2021/10/08 06:40:10;;;;;;;9.87;6.57;;;9.40;85.80;;;;;;5027299;28;20468;-45
2021/10/08 06:42:37;;;;;;;7.10;6.00;;;9.50;85.90;;;;;;5035031;28;20449;-45
2021/10/08 06:45:05;;;;;;;7.53;5.90;;;9.50;85.90;;;;;;5039301;28;20838;-45
2021/10/08 06:47:32;;;;;;;7.90;6.87;;;9.50;86.00;;;;;;5045465;28;20459;-45
2021/10/08 06:49:59;;;;;;;10.93;7.00;;;9.50;86.10;;;;;;5042085;28;20984;-45
2021/10/08 06:52:26;;;;;;;8.50;6.80;;;9.60;86.10;;;;;;5048145;28;20748;-45
2021/10/08 06:54:53;;;;;;;9.63;7.23;;;9.60;86.20;;;;;;5041355;28;20451;-45
2021/10/08 06:57:19;;;;;;;9.43;6.40;;;9.70;86.30;;;;;;5023822;28;20446;-45
2021/10/08 06:59:46;;;;;;;8.23;6.60;;;9.70;86.30;;;;;;5044098;28;20454;-45
2021/10/08 07:02:13;;;;;;;9.17;7.43;;;9.70;86.40;;;;;;5045015;28;20517;-45
2021/10/08 07:04:39;;;;;;;11.47;6.90;;;9.80;86.50;;;;;;5047605;28;20439;-45
2021/10/08 07:07:06;;;;;;;8.10;7.03;;;9.80;86.50;;;;;;5044390;28;20461;-45
2021/10/08 07:09:33;;;;;;;9.03;7.70;;;9.90;86.50;;;;;;5044595;28;21011;-45
2021/10/08 07:12:00;;;;;;;7.63;6.93;;;9.90;86.50;;;;;;5044144;28;20486;-45
2021/10/08 07:14:26;;;;;;;10.70;7.63;;;10.00;86.50;;;;;;5047228;28;20470;-45
2021/10/08 07:16:55;;;;;;;9.80;7.20;;;10.00;86.60;;;;;;5029954;28;20874;-45
2021/10/08 07:19:23;;;;;;;10.67;7.47;;;10.10;86.70;;;;;;5046945;28;20548;-45
2021/10/08 07:21:51;;;;;;;13.40;8.03;;;10.10;86.70;;;;;;5042396;28;20458;-45
2021/10/08 07:24:18;;;;;;;12.40;9.57;;;10.20;86.80;;;;;;5045644;28;20452;-45
2021/10/08 07:26:45;;;;;;;12.63;8.90;;;10.20;86.90;;;;;;5046392;28;20452;-45
2021/10/08 07:29:11;;;;;;;11.17;9.07;;;10.30;87.20;;;;;;5045283;28;20457;-45
2021/10/08 07:31:42;;;;;;;11.80;8.30;;;10.40;87.50;;;;;;5045996;28;20463;-45
2021/10/08 07:34:09;;;;;;;11.10;8.40;;;10.50;87.40;;;;;;5042135;28;20980;-45
2021/10/08 07:36:36;;;;;;;9.63;8.73;;;10.60;87.30;;;;;;5043166;28;20464;-45
2021/10/08 07:39:03;;;;;;;10.53;8.73;;;10.60;87.40;;;;;;5042344;28;20495;-45
2021/10/08 07:41:30;;;;;;;10.77;7.90;;;10.70;87.50;;;;;;5027026;28;20443;-45
2021/10/08 07:43:57;;;;;;;12.80;9.00;;;10.80;87.60;;;;;;5046671;28;20461;-45
2021/10/08 07:46:24;;;;;;;12.30;8.67;;;10.90;87.60;;;;;;5045514;28;20451;-45
2021/10/08 07:48:51;;;;;;;12.00;8.83;;;11.00;87.80;;;;;;5030517;28;20470;-45
2021/10/08 07:51:18;;;;;;;11.90;8.53;;;11.20;87.80;;;;;;5040242;28;20459;-45
2021/10/08 07:53:45;;;;;;;12.90;8.00;;;11.30;87.80;;;;;;5047130;28;20450;-45
2021/10/08 07:56:13;;;;;;;10.93;7.40;;;11.40;87.80;;;;;;5048229;28;20468;-45
2021/10/08 07:58:40;;;;;;;8.47;7.43;;;11.60;87.40;;;;;;5043133;28;20483;-45
2021/10/08 08:01:07;;;;;;;9.33;7.47;;;11.80;87.20;;;;;;5033471;28;20457;-45
2021/10/08 08:03:33;;;;;;;10.43;7.70;;;11.90;86.60;;;;;;5045223;28;20478;-45
2021/10/08 08:06:00;;;;;;;8.47;7.50;;;12.10;86.20;;;;;;5045424;28;20974;-45
2021/10/08 08:08:27;;;;;;;9.27;7.97;;;12.30;85.50;;;;;;5042383;28;20448;-45
2021/10/08 08:10:54;;;;;;;9.93;7.60;;;12.40;85.10;;;;;;5045109;28;20462;-45
2021/10/08 08:13:21;;;;;;;15.33;10.63;;;12.50;84.70;;;;;;5048519;28;20462;-45
2021/10/08 08:15:48;;;;;;;10.00;8.80;;;12.60;84.50;;;;;;5048642;28;20478;-45
2021/10/08 08:18:15;;;;;;;9.50;8.60;;;12.80;84.10;;;;;;5041404;28;20488;-45
2021/10/08 08:20:42;;;;;;;9.40;8.37;;;13.00;82.10;;;;;;5027005;28;20509;-45
2021/10/08 08:23:09;;;;;;;12.67;7.80;;;13.20;81.80;;;;;;5031428;28;20808;-45
2021/10/08 08:25:36;;;;;;;10.90;7.43;;;13.40;81.30;;;;;;5028521;28;20439;-46
2021/10/08 08:28:02;;;;;;;10.33;7.80;;;13.50;80.80;;;;;;5044836;28;20459;-45
2021/10/08 08:30:29;;;;;;;10.60;8.10;;;13.70;80.20;;;;;;5043128;28;20458;-45
2021/10/08 08:32:56;;;;;;;8.73;7.40;;;13.90;79.80;;;;;;5041158;28;20557;-45
2021/10/08 08:35:23;;;;;;;9.33;7.30;;;13.90;79.30;;;;;;5023537;28;20825;-45
2021/10/08 08:37:50;;;;;;;7.53;6.63;;;14.00;78.70;;;;;;5043146;28;20466;-45
2021/10/08 08:40:17;;;;;;;9.87;8.47;;;14.00;78.70;;;;;;5040076;28;20956;-45
2021/10/08 08:42:44;;;;;;;8.20;7.27;;;14.00;78.40;;;;;;5043539;28;20455;-45
2021/10/08 08:45:11;;;;;;;9.63;7.17;;;14.00;78.30;;;;;;5046177;28;20458;-45
2021/10/08 08:47:38;;;;;;;8.93;8.07;;;14.00;78.40;;;;;;5044287;28;20830;-45
2021/10/08 08:50:06;;;;;;;10.00;8.40;;;14.10;78.10;;;;;;5041685;28;20451;-45
2021/10/08 08:52:33;;;;;;;9.87;8.10;;;14.10;77.60;;;;;;5030346;28;20458;-45
2021/10/08 08:55:00;;;;;;;8.70;7.73;;;14.10;77.70;;;;;;5041933;28;20458;-45
2021/10/08 08:57:26;;;;;;;12.07;7.87;;;14.10;78.00;;;;;;5041875;28;21430;-45
2021/10/08 09:00:01;;;;;;;8.77;7.60;;;14.20;77.20;;;;;;5029704;28;20478;-45
2021/10/08 09:02:29;;;;;;;14.40;8.17;;;14.30;77.40;;;;;;5045069;28;20446;-45
2021/10/08 09:04:56;;;;;;;12.43;8.37;;;14.40;77.90;;;;;;5029207;28;20825;-45
2021/10/08 09:07:29;;;;;;;9.37;7.50;;;14.40;77.70;;;;;;5044362;28;20852;-45
2021/10/08 09:10:12;;;;;;;12.30;7.97;;;14.40;77.80;;;;;;5025260;28;20466;-45
2021/10/08 09:12:40;;;;;;;10.37;7.77;;;14.50;77.90;;;;;;5026013;28;20459;-45
2021/10/08 09:15:08;;;;;;;13.27;8.60;;;14.50;77.60;;;;;;5043333;28;21911;-45
2021/10/08 09:17:35;;;;;;;12.37;7.80;;;14.60;77.30;;;;;;5039447;28;20466;-45
2021/10/08 09:20:14;;;;;;;13.27;8.43;;;14.70;77.00;;;;;;5042773;28;20490;-45
2021/10/08 09:22:40;;;;;;;10.30;7.33;;;14.70;76.20;;;;;;5044636;28;20466;-45
2021/10/08 09:25:12;;;;;;;9.20;8.00;;;14.70;76.40;;;;;;5044687;28;20973;-45
2021/10/08 09:27:42;;;;;;;10.57;7.87;;;14.70;76.60;;;;;;5041982;28;20537;-45
2021/10/08 09:30:10;;;;;;;10.90;9.43;;;14.70;76.80;;;;;;5043267;28;20458;-45
2021/10/08 09:32:46;;;;;;;8.40;7.50;;;14.80;76.10;;;;;;5042740;28;20454;-45
2021/10/08 09:35:17;;;;;;;9.40;6.97;;;14.80;76.10;;;;;;5041768;28;20451;-45
2021/10/08 09:37:56;;;;;;;10.40;8.07;;;14.90;76.20;;;;;;5043110;28;20455;-45
2021/10/08 09:40:52;;;;;;;8.90;8.03;;;15.00;76.40;;;;;;5033250;28;20454;-45
2021/10/08 09:43:22;;;;;;;8.63;7.63;;;15.10;76.00;;;;;;5044838;28;20451;-45
2021/10/08 09:46:16;;;;;;;9.30;7.40;;;15.30;76.00;;;;;;5044372;28;20450;-45
2021/10/08 09:48:42;;;;;;;8.63;7.73;;;15.40;75.20;;;;;;5041713;28;20455;-45
2021/10/08 09:51:15;;;;;;;9.73;8.00;;;15.50;75.20;;;;;;5041255;28;20453;-46
2021/10/08 09:53:47;;;;;;;9.70;8.23;;;15.50;75.20;;;;;;5043524;28;20962;-46
2021/10/08 09:56:35;;;;;;;12.50;7.93;;;15.70;73.80;;;;;;5030288;28;20558;-46
2021/10/08 09:59:07;;;;;;;9.27;7.53;;;15.80;73.40;;;;;;5042431;28;20483;-46
2021/10/08 10:01:35;;;;;;;9.43;6.50;;;15.90;73.20;;;;;;5041880;28;20456;-46
2021/10/08 10:04:04;;;;;;;7.00;6.40;;;16.10;72.40;;;;;;5042712;28;20889;-46
2021/10/08 10:06:31;;;;;;;5.70;5.20;;;16.30;71.50;;;;;;5039980;28;20448;-46
2021/10/08 10:09:02;;;;;;;5.30;4.80;;;16.50;70.40;;;;;;5043974;28;20454;-46
2021/10/08 10:11:29;;;;;;;5.90;4.73;;;16.80;69.50;;;;;;5040791;28;20872;-45
2021/10/08 10:13:59;;;;;;;8.90;4.77;;;17.10;67.50;;;;;;5042164;28;20479;-45
2021/10/08 10:16:30;;;;;;;6.43;4.63;;;17.40;66.90;;;;;;5030615;28;20991;-45
2021/10/08 10:18:59;;;;;;;6.33;4.63;;;17.60;66.40;;;;;;5039291;28;20501;-45
2021/10/08 10:21:29;;;;;;;5.80;4.17;;;17.90;65.70;;;;;;5043468;28;20446;-46
2021/10/08 10:23:58;;;;;;;4.80;4.30;;;18.20;63.60;;;;;;5038068;28;20470;-45
2021/10/08 10:26:27;;;;;;;4.97;4.23;;;18.40;62.20;;;;;;5041468;28;20967;-45
2021/10/08 10:28:55;;;;;;;4.40;4.07;;;18.50;61.90;;;;;;5040039;28;20655;-45
2021/10/08 10:31:23;;;;;;;6.10;5.10;;;18.50;62.20;;;;;;5043401;28;20455;-46
2021/10/08 10:33:50;;;;;;;4.67;4.27;;;18.50;61.90;;;;;;5043808;28;20541;-46
2021/10/08 10:36:25;;;;;;;5.10;4.60;;;18.60;61.90;;;;;;5045687;28;20811;-45
2021/10/08 10:39:15;;;;;;;8.63;4.60;;;18.60;61.20;;;;;;5043906;28;20490;-45
2021/10/08 10:41:44;;;;;;;6.30;5.00;;;18.60;61.70;;;;;;5045226;28;20439;-45
2021/10/08 10:44:27;;;;;;;5.27;4.77;;;18.60;62.20;;;;;;5044673;28;20459;-45
2021/10/08 10:47:23;;;;;;;5.93;5.10;;;18.60;62.10;;;;;;5046253;28;20451;-46
2021/10/08 10:50:14;;;;;;;5.37;4.87;;;18.60;61.70;;;;;;5044762;28;20815;-45
2021/10/08 10:52:56;;;;;;;7.87;5.10;;;18.70;62.30;;;;;;5046287;28;20450;-45
2021/10/08 10:55:24;;;;;;;11.13;5.57;;;18.60;63.30;;;;;;5046323;28;20453;-46
2021/10/08 10:57:56;;;;;;;5.97;5.37;;;18.50;62.80;;;;;;5041191;28;21002;-46
2021/10/08 11:00:33;;;;;;;6.30;4.87;;;18.50;63.00;;;;;;5045990;28;21002;-46
2021/10/08 11:03:06;;;;;;;7.80;5.97;;;18.50;62.50;;;;;;5043693;28;20450;-45
2021/10/08 11:05:36;;;;;;;6.83;5.90;;;18.40;62.50;;;;;;5033227;28;21279;-45
2021/10/08 11:08:17;;;;;;;6.90;5.40;;;18.40;62.70;;;;;;5030992;28;20458;-46
2021/10/08 11:11:06;;;;;;;5.80;5.20;;;18.40;63.00;;;;;;5045904;28;20446;-46
2021/10/08 11:13:35;;;;;;;6.80;6.10;;;18.30;63.40;;;;;;5044288;28;20477;-45
2021/10/08 11:16:09;;;;;;;7.53;6.63;;;18.30;63.80;;;;;;5046291;28;20447;-45
2021/10/08 11:18:51;;;;;;;7.10;6.40;;;18.20;63.20;;;;;;5028749;28;20445;-46
2021/10/08 11:21:28;;;;;;;7.70;6.27;;;18.20;63.60;;;;;;5028265;28;20456;-46
2021/10/08 11:24:16;;;;;;;8.87;7.87;;;18.20;62.80;;;;;;5043559;28;20528;-46
2021/10/08 11:26:50;;;;;;;10.20;6.90;;;18.20;62.60;;;;;;5021911;28;20461;-46
2021/10/08 11:29:17;;;;;;;10.07;8.23;;;18.10;63.30;;;;;;5043623;28;20455;-46
2021/10/08 11:31:44;;;;;;;7.07;6.37;;;18.10;63.70;;;;;;5044930;28;20935;-45
2021/10/08 11:34:15;;;;;;;7.80;6.60;;;18.10;63.00;;;;;;5044166;28;20464;-46
2021/10/08 11:36:42;;;;;;;8.60;7.10;;;18.20;63.30;;;;;;5046366;28;20462;-45
2021/10/08 11:39:17;;;;;;;7.60;6.80;;;18.20;62.60;;;;;;5044443;28;20482;-45
2021/10/08 11:42:01;;;;;;;7.50;6.80;;;18.20;63.20;;;;;;5042523;28;20450;-45
2021/10/08 11:45:17;;;;;;;8.00;7.20;;;18.20;63.30;;;;;;5044232;28;20442;-46
2021/10/08 11:52:59;;;;;;;7.07;6.03;;;18.20;63.40;;;;;;5038864;28;20471;-45
2021/10/08 11:55:28;;;;;;;8.20;6.90;;;18.20;63.40;;;;;;5039048;28;20447;-45
2021/10/08 11:58:21;;;;;;;7.13;6.30;;;18.10;63.30;;;;;;5040178;28;21046;-45
2021/10/08 12:00:48;;;;;;;8.03;6.57;;;18.00;63.90;;;;;;5040292;28;21034;-45
2021/10/08 12:03:18;;;;;;;6.97;6.27;;;18.00;64.00;;;;;;5038363;28;20870;-45
2021/10/08 12:05:57;;;;;;;7.40;6.27;;;18.00;64.00;;;;;;5019237;28;20495;-45
2021/10/08 12:08:32;;;;;;;8.17;6.60;;;18.00;64.30;;;;;;5047106;28;20531;-45
2021/10/08 12:11:10;;;;;;;6.30;5.30;;;17.90;64.80;;;;;;5042248;28;20446;-45
2021/10/08 12:13:50;;;;;;;8.80;6.00;;;17.90;65.00;;;;;;5041001;28;20471;-45
2021/10/08 12:16:26;;;;;;;9.33;6.63;;;17.90;65.00;;;;;;5041895;28;20451;-45
2021/10/08 12:18:58;;;;;;;7.23;6.40;;;17.90;65.20;;;;;;5042416;28;20461;-45
2021/10/08 12:21:28;;;;;;;6.20;5.60;;;17.90;65.30;;;;;;5043765;28;20900;-45
2021/10/08 12:24:04;;;;;;;8.87;6.50;;;17.90;65.50;;;;;;5028718;28;20462;-45
2021/10/08 12:26:32;;;;;;;7.13;6.20;;;17.90;64.90;;;;;;5029841;28;20470;-46
2021/10/08 12:29:00;;;;;;;8.37;5.90;;;17.80;65.00;;;;;;5039611;28;20459;-45
2021/10/08 12:31:53;;;;;;;10.77;6.70;;;17.80;65.20;;;;;;5042967;28;20458;-46
2021/10/08 12:34:38;;;;;;;10.50;6.83;;;17.80;65.80;;;;;;5046032;28;21401;-45
2021/10/08 12:37:10;;;;;;;8.13;6.23;;;17.70;65.90;;;;;;5044015;28;20438;-45
2021/10/08 12:39:57;;;;;;;8.27;7.27;;;17.70;66.10;;;;;;5042609;28;20991;-45
2021/10/08 12:42:26;;;;;;;7.90;6.93;;;17.70;66.40;;;;;;5041559;28;20489;-45
2021/10/08 12:44:59;;;;;;;10.40;6.83;;;17.70;66.50;;;;;;5041842;28;20950;-46
2021/10/08 12:47:39;;;;;;;7.93;6.47;;;17.60;66.60;;;;;;5045240;28;20925;-47
2021/10/08 12:50:09;;;;;;;8.53;7.03;;;17.60;66.80;;;;;;5041772;28;20463;-46
2021/10/08 12:52:46;;;;;;;7.00;6.30;;;17.60;66.90;;;;;;5040758;28;20467;-47
2021/10/08 12:55:16;;;;;;;11.50;7.80;;;17.60;67.40;;;;;;5030960;28;20450;-46
2021/10/08 12:58:10;;;;;;;10.27;7.97;;;17.60;67.00;;;;;;5041852;28;20517;-46
2021/10/08 13:00:50;;;;;;;8.43;7.07;;;17.60;67.10;;;;;;5039130;28;20497;-46
2021/10/08 13:03:38;;;;;;;9.83;8.13;;;17.60;67.60;;;;;;5038816;28;20450;-46
2021/10/08 13:06:10;;;;;;;11.57;9.80;;;17.70;67.20;;;;;;5041494;28;20809;-46
2021/10/08 13:08:38;;;;;;;12.63;9.27;;;17.70;66.20;;;;;;5041473;28;20542;-46